createdAt,value
2022-11-17T00:00:50.727Z,1.33
2022-11-17T00:05:52.365Z,1.85
2022-11-17T00:10:54.058Z,1.40
2022-11-17T00:15:55.742Z,1.30
2022-11-17T00:21:16.208Z,1.40
2022-11-17T00:26:19.083Z,1.42
2022-11-17T00:31:40.400Z,1.30
2022-11-17T00:36:45.748Z,1.50
2022-11-17T00:41:47.897Z,1.30
2022-11-17T00:46:49.940Z,1.50
2022-11-17T00:51:52.713Z,1.73
2022-11-17T00:56:54.726Z,1.58
2022-11-17T01:01:56.393Z,1.70
2022-11-17T01:06:58.056Z,1.35
2022-11-17T01:11:59.881Z,1.30
2022-11-17T01:17:01.567Z,1.30
2022-11-17T01:22:03.872Z,1.40
2022-11-17T01:27:05.535Z,1.20
2022-11-17T01:32:07.243Z,1.63
2022-11-17T01:37:21.175Z,1.40
2022-11-17T01:42:25.780Z,1.40
2022-11-17T01:47:42.503Z,1.58
2022-11-17T01:52:44.939Z,1.50
2022-11-17T01:58:10.460Z,1.52
2022-11-17T02:03:13.493Z,1.40
2022-11-17T02:08:16.997Z,1.33
2022-11-17T02:13:20.325Z,1.20
2022-11-17T02:18:22.132Z,1.73
2022-11-17T02:23:35.707Z,1.52
2022-11-17T02:28:50.307Z,1.90
2022-11-17T02:39:18.549Z,1.75
2022-11-17T02:44:33.246Z,1.67
2022-11-17T02:49:38.004Z,1.73
2022-11-17T02:54:39.743Z,1.42
2022-11-17T02:59:47.655Z,1.50
2022-11-17T03:05:07.987Z,1.95
2022-11-17T03:10:20.877Z,1.33
2022-11-17T03:15:44.731Z,1.60
2022-11-17T03:21:08.382Z,1.70
2022-11-17T03:26:15.307Z,1.58
2022-11-17T03:31:19.106Z,2.00
2022-11-17T03:36:25.737Z,1.60
2022-11-17T03:41:31.516Z,1.60
2022-11-17T03:46:36.256Z,1.65
2022-11-17T03:51:38.294Z,1.60
2022-11-17T03:56:43.218Z,1.60
2022-11-17T04:01:45.216Z,1.70
2022-11-17T04:06:48.208Z,1.83
2022-11-17T04:12:08.360Z,1.80
2022-11-17T04:17:10.027Z,1.60
2022-11-17T04:22:14.829Z,1.80
2022-11-17T04:27:34.986Z,1.85
2022-11-17T04:32:36.708Z,1.50
2022-11-17T04:37:38.352Z,1.75
2022-11-17T04:42:40.061Z,1.40
2022-11-17T04:47:41.723Z,1.45
2022-11-17T04:52:43.486Z,1.40
2022-11-17T04:57:45.182Z,1.70
2022-11-17T05:02:46.871Z,1.83
2022-11-17T05:07:48.503Z,1.60
2022-11-17T05:13:08.699Z,1.70
2022-11-17T05:18:10.438Z,1.80
2022-11-17T05:23:30.515Z,1.88
2022-11-17T05:28:32.147Z,2.05
2022-11-17T05:33:37.757Z,1.80
2022-11-17T05:38:40.268Z,1.90
2022-11-17T05:43:42.239Z,1.98
2022-11-17T05:48:44.760Z,1.95
2022-11-17T05:53:46.792Z,1.58
2022-11-17T05:59:11.517Z,2.00
2022-11-17T06:04:17.275Z,1.45
2022-11-17T06:09:19.352Z,1.25
2022-11-17T06:14:21.059Z,1.65
2022-11-17T06:19:27.796Z,1.50
2022-11-17T06:24:29.546Z,1.50
2022-11-17T06:29:31.865Z,1.70
2022-11-17T06:34:34.898Z,1.55
2022-11-17T06:39:36.558Z,2.00
2022-11-17T06:44:38.233Z,1.95
2022-11-17T06:49:39.938Z,2.05
2022-11-17T06:54:41.590Z,1.70
2022-11-17T06:59:43.286Z,1.80
2022-11-17T07:04:44.966Z,1.83
2022-11-17T07:09:46.750Z,2.10
2022-11-17T07:14:48.516Z,2.53
2022-11-17T07:19:50.181Z,2.03
2022-11-17T07:24:51.910Z,2.38
2022-11-17T07:29:53.642Z,2.47
2022-11-17T07:34:55.400Z,1.90
2022-11-17T07:39:57.069Z,2.25
2022-11-17T07:44:58.733Z,2.10
2022-11-17T07:50:00.966Z,1.85
2022-11-17T07:55:02.714Z,2.13
2022-11-17T08:00:04.886Z,1.80
2022-11-17T08:05:07.074Z,2.00
2022-11-17T08:10:09.061Z,2.30
2022-11-17T08:15:10.813Z,1.85
2022-11-17T08:20:12.754Z,2.20
2022-11-17T08:25:14.869Z,1.95
2022-11-17T08:30:16.653Z,1.90
2022-11-17T08:35:21.223Z,1.65
2022-11-17T08:40:23.045Z,2.17
2022-11-17T08:45:25.198Z,1.88
2022-11-17T08:50:27.104Z,1.67
2022-11-17T08:55:28.895Z,1.95
2022-11-17T09:00:30.596Z,1.67
2022-11-17T09:05:35.243Z,1.45
2022-11-17T09:10:37.885Z,1.20
2022-11-17T09:15:39.611Z,1.20
2022-11-17T09:20:45.430Z,0.95
2022-11-17T09:25:47.441Z,1.20
2022-11-17T09:30:49.124Z,1.40
2022-11-17T09:35:50.833Z,1.10
2022-11-17T09:40:55.124Z,1.67
2022-11-17T09:51:12.768Z,1.27
2022-11-17T09:56:14.831Z,1.02
2022-11-17T10:01:19.206Z,1.38
2022-11-17T10:11:32.089Z,1.00
2022-11-17T10:16:34.013Z,0.80
2022-11-17T10:21:37.754Z,0.90
2022-11-17T10:26:49.578Z,1.08
2022-11-17T10:31:51.259Z,0.75
2022-11-17T10:36:53.062Z,0.85
2022-11-17T10:41:54.835Z,0.80
2022-11-17T10:47:05.470Z,1.63
2022-11-17T10:52:18.238Z,1.08
2022-11-17T10:57:26.645Z,1.25
2022-11-17T11:02:39.781Z,1.20
2022-11-17T11:07:41.965Z,0.90
2022-11-17T11:13:06.693Z,0.75
2022-11-17T11:23:20.894Z,0.80
2022-11-17T11:28:51.296Z,0.80
2022-11-17T11:34:17.455Z,0.75
2022-11-17T11:39:45.785Z,0.93
2022-11-17T11:45:09.148Z,0.70
2022-11-17T11:50:16.010Z,0.90
2022-11-17T11:55:34.765Z,0.70
2022-11-17T12:00:37.377Z,1.00
2022-11-17T12:06:25.530Z,0.90
2022-11-17T12:11:45.965Z,0.98
2022-11-17T12:16:48.445Z,0.75
2022-11-17T12:21:55.361Z,0.68
2022-11-17T12:27:35.459Z,1.02
2022-11-17T12:32:52.119Z,3.20
2022-11-17T12:38:12.832Z,2.50
2022-11-17T12:43:26.526Z,1.27
2022-11-17T12:48:34.687Z,1.20
2022-11-17T12:53:59.789Z,1.40
2022-11-17T12:59:10.557Z,1.38
2022-11-17T13:04:20.621Z,1.15
2022-11-17T13:09:26.869Z,0.85
2022-11-17T13:14:28.590Z,0.60
2022-11-17T13:19:32.794Z,1.10
2022-11-17T13:29:37.870Z,1.00
2022-11-17T13:34:48.192Z,0.85
2022-11-17T13:40:19.775Z,0.80
2022-11-17T13:45:21.657Z,0.90
2022-11-17T13:50:29.422Z,0.80
2022-11-17T13:55:32.041Z,1.20
2022-11-17T14:00:34.376Z,1.35
2022-11-17T14:05:36.091Z,1.10
2022-11-17T14:10:39.130Z,1.38
2022-11-17T14:15:42.643Z,1.40
2022-11-17T14:20:44.434Z,1.13
2022-11-17T14:25:50.047Z,1.40
2022-11-17T14:30:54.978Z,1.20
2022-11-17T14:35:59.186Z,1.10
2022-11-17T14:41:01.073Z,1.25
2022-11-17T14:46:03.382Z,1.65
2022-11-17T14:51:05.291Z,1.52
2022-11-17T14:56:10.818Z,1.33
2022-11-17T15:01:18.141Z,1.17
2022-11-17T15:06:20.571Z,1.45
2022-11-17T15:11:22.974Z,1.38
2022-11-17T15:16:24.742Z,1.25
2022-11-17T15:21:26.398Z,1.33
2022-11-17T15:26:28.028Z,1.17
2022-11-17T15:31:30.158Z,2.28
2022-11-17T15:36:31.995Z,2.03
2022-11-17T15:41:33.727Z,1.33
2022-11-17T15:46:36.161Z,1.42
2022-11-17T15:51:37.922Z,1.52
2022-11-17T15:56:39.649Z,1.63
2022-11-17T16:01:41.509Z,1.70
2022-11-17T16:06:45.678Z,1.40
2022-11-17T16:11:47.707Z,1.48
2022-11-17T16:16:49.654Z,1.70
2022-11-17T16:21:51.430Z,1.55
2022-11-17T16:26:53.114Z,2.05
2022-11-17T16:31:56.146Z,1.70
2022-11-17T16:36:57.910Z,1.65
2022-11-17T16:42:00.220Z,2.08
2022-11-17T16:47:02.011Z,1.85
2022-11-17T16:52:03.691Z,2.00
2022-11-17T16:57:05.345Z,2.10
2022-11-17T17:02:06.990Z,2.60
2022-11-17T17:07:08.737Z,2.63
2022-11-17T17:12:10.514Z,2.00
2022-11-17T17:17:12.169Z,1.80
2022-11-17T17:22:13.864Z,2.00
2022-11-17T17:27:15.618Z,2.28
2022-11-17T17:32:17.253Z,2.03
2022-11-17T17:37:18.903Z,2.28
2022-11-17T17:42:21.579Z,2.90
2022-11-17T17:47:23.248Z,2.35
2022-11-17T17:52:24.904Z,2.60
2022-11-17T17:57:29.863Z,2.63
2022-11-17T18:02:34.523Z,2.70
2022-11-17T18:07:36.503Z,3.95
2022-11-17T18:12:38.188Z,4.10
2022-11-17T18:17:39.892Z,4.40
2022-11-17T18:22:41.669Z,4.53
2022-11-17T18:27:43.305Z,4.50
2022-11-17T18:32:45.044Z,3.22
2022-11-17T18:37:46.656Z,2.85
2022-11-17T18:42:48.321Z,3.42
2022-11-17T18:47:49.971Z,2.92
2022-11-17T18:52:52.058Z,3.80
2022-11-17T18:57:53.833Z,4.00
2022-11-17T19:02:55.465Z,4.40
2022-11-17T19:07:57.627Z,4.13
2022-11-17T19:12:59.291Z,4.40
2022-11-17T19:18:00.857Z,3.80
2022-11-17T19:23:02.477Z,4.50
2022-11-17T19:28:04.563Z,4.93
2022-11-17T19:33:06.181Z,5.32
2022-11-17T19:38:07.815Z,4.85
2022-11-17T19:43:09.432Z,4.75
2022-11-17T19:48:11.162Z,3.47
2022-11-17T19:53:12.801Z,4.15
2022-11-17T19:58:18.444Z,4.60
2022-11-17T20:03:21.178Z,4.00
2022-11-17T20:08:22.817Z,5.40
2022-11-17T20:13:24.461Z,5.15
2022-11-17T20:18:26.506Z,5.47
2022-11-17T20:23:28.211Z,5.35
2022-11-17T20:28:32.929Z,6.00
2022-11-17T20:33:34.673Z,5.35
2022-11-17T20:38:36.393Z,5.18
2022-11-17T20:43:38.125Z,5.10
2022-11-17T20:48:40.785Z,5.10
2022-11-17T20:53:42.597Z,4.38
2022-11-17T20:58:44.751Z,4.63
2022-11-17T21:03:46.820Z,4.25
2022-11-17T21:08:48.792Z,4.25
2022-11-17T21:13:50.447Z,3.47
2022-11-17T21:18:52.462Z,3.50
2022-11-17T21:23:55.033Z,4.35
2022-11-17T21:29:00.481Z,3.78
2022-11-17T21:34:06.644Z,4.22
2022-11-17T21:39:08.326Z,4.03
2022-11-17T21:44:12.164Z,3.85
2022-11-17T21:49:14.284Z,3.35
2022-11-17T21:54:16.381Z,3.97
2022-11-17T21:59:18.352Z,3.33
2022-11-17T22:04:20.229Z,3.17
2022-11-17T22:09:21.975Z,3.10
2022-11-17T22:14:23.708Z,2.67
2022-11-17T22:19:28.247Z,2.80
2022-11-17T22:24:29.943Z,2.80
2022-11-17T22:29:31.540Z,2.92
2022-11-17T22:34:33.402Z,3.28
2022-11-17T22:39:35.088Z,3.80
2022-11-17T22:44:36.754Z,3.30
2022-11-17T22:49:38.406Z,3.05
2022-11-17T22:54:40.202Z,3.40
2022-11-17T22:59:41.859Z,4.03
2022-11-17T23:04:43.567Z,3.72
2022-11-17T23:09:45.193Z,4.10
2022-11-17T23:14:47.909Z,4.05
2022-11-17T23:19:49.592Z,4.82
2022-11-17T23:24:51.311Z,4.25
2022-11-17T23:29:53.530Z,4.20
2022-11-17T23:34:55.237Z,4.32
2022-11-17T23:39:56.893Z,4.57
2022-11-17T23:44:58.713Z,4.38
2022-11-17T23:50:00.428Z,3.70
2022-11-17T23:55:02.133Z,3.72
